Create Tblcommutelog Verified Points Advance Search
| # | Trip ID | Id Commuter | Trip Date | Trip Num | Current Lat | Current Lng | Delta Distance | Current Time | Activity | Activity Confidence | Current Speed | |
|---|---|---|---|---|---|---|---|---|---|---|---|---|
| 72481 | 250715_786722_16655097_1609 | 786722 | (not set) | (not set) | 39.088066085945 | -77.173914023063 | 5.6827 | 2025-07-15 16:23:01 | unknown | 100 | 11.412912281957 | |
| 72482 | 250715_777589_16645215_1616 | 777589 | (not set) | (not set) | 38.921703373969 | -77.226343961915 | 0.3876 | 2025-07-15 16:23:03 | in_vehicle | 100 | 4.8861391007358 | |
| 72483 | 250715_786722_16655097_1609 | 786722 | (not set) | (not set) | 39.089386810925 | -77.17435548661 | 5.7769 | 2025-07-15 16:23:07 | unknown | 100 | 11.073162445126 | |
| 72484 | 250715_765203_16507324_1601 | 765203 | (not set) | (not set) | 38.881107428593 | -77.111576731209 | 3.875 | 2025-07-15 16:23:35 | on_foot | 100 | 0.23246041467362 | |
| 72485 | 250715_777589_16645215_1616 | 777589 | (not set) | (not set) | 38.92120908422 | -77.226296259726 | 0.4218 | 2025-07-15 16:23:51 | in_vehicle | 100 | 0 | |
| 72486 | 250715_777589_16645215_1616 | 777589 | (not set) | (not set) | 38.92071078781 | -77.22633802989 | 0.4563 | 2025-07-15 16:24:07 | in_vehicle | 100 | 3.241034627661 | |
| 72487 | 250715_777589_16645215_1616 | 777589 | (not set) | (not set) | 38.919808783392 | -77.226306113607 | 0.5185 | 2025-07-15 16:24:18 | in_vehicle | 100 | 3.4377319016156 | |
| 72488 | 250715_755296_16621534_1612 | 755296 | (not set) | (not set) | 38.900351542771 | -77.000591039965 | 0.86 | 2025-07-15 16:24:26 | in_vehicle | 100 | 0 | |
| 72489 | 250715_698742_16655895_1620 | 698742 | (not set) | (not set) | 38.871266865213 | -77.041494208387 | 1.563 | 2025-07-15 16:23:43 | in_vehicle | 100 | 7.7024864323585 | |
| 72490 | 250715_777589_16645215_1616 | 777589 | (not set) | (not set) | 38.920082347531 | -77.222736388844 | 0.7118 | 2025-07-15 16:24:51 | in_vehicle | 100 | 6.0842043148229 | |
| 72491 | 250715_777589_16645215_1616 | 777589 | (not set) | (not set) | 38.920204529803 | -77.220411204053 | 0.8374 | 2025-07-15 16:25:03 | in_vehicle | 100 | 8.2434039357336 | |
| 72492 | 250715_786823_16655207_1530 | 786823 | (not set) | (not set) | 39.122315519679 | -76.813526337051 | 17.3528 | 2025-07-15 16:25:15 | unknown | 100 | 5.8740958630987 | |
| 72493 | 250715_755296_16621534_1612 | 755296 | (not set) | (not set) | 38.898495255791 | -77.000593041483 | 0.988 | 2025-07-15 16:25:28 | in_vehicle | 100 | 2.3558968948653 | |
| 72494 | 250715_775158_16642620_1603 | 775158 | (not set) | (not set) | 38.81315476525 | -77.053196878633 | 7.0431 | 2025-07-15 16:25:37 | on_foot | 100 | 0.63926614035245 | |
| 72495 | 250715_775158_16642620_1603 | 775158 | (not set) | (not set) | 38.81315476525 | -77.053196878633 | 7.0431 | 2025-07-15 16:25:37 | on_foot | 100 | 0.63926614035245 | |
| 72496 | 250715_777589_16645215_1616 | 777589 | (not set) | (not set) | 38.914168272217 | -77.218040731728 | 1.3309 | 2025-07-15 16:25:43 | in_vehicle | 100 | 9.1017193129901 | |
| 72497 | 250715_777589_16645215_1616 | 777589 | (not set) | (not set) | 38.911825198701 | -77.218176323302 | 1.4926 | 2025-07-15 16:25:58 | in_vehicle | 100 | 5.4851717077794 | |
| 72498 | 250715_755296_16621534_1612 | 755296 | (not set) | (not set) | 38.896665377231 | -77.000594664852 | 1.1142 | 2025-07-15 16:26:07 | in_vehicle | 100 | 2.0563805913435 | |
| 72499 | 250715_777589_16645215_1616 | 777589 | (not set) | (not set) | 38.91044614315 | -77.218162010031 | 1.5877 | 2025-07-15 16:26:27 | in_vehicle | 100 | 2.9415183241392 | |
| 72500 | 250715_777589_16645215_1616 | 777589 | (not set) | (not set) | 38.909499349262 | -77.218083635212 | 1.6532 | 2025-07-15 16:26:42 | in_vehicle | 100 | 3.1426859906837 |